Time;durP1;ratioP1;P1;durP2;ratioP2;P2;SDS_P1;SDS_P2;PMS_P1;PMS_P2;Temp;Humidity;BMP_temperature;BMP_pressure;BME280_temperature;BME280_humidity;BME280_pressure;Samples;Min_cycle;Max_cycle;Signal;HPM_P1;HPM_P2
2022/12/05 00:00:04;;;;;;;31.83;15.10;;;5.30;99.90;;;;;;5064617;28;20036;-40
2022/12/05 00:02:30;;;;;;;28.67;13.80;;;5.30;99.90;;;;;;5032321;28;20029;-40
2022/12/05 00:04:56;;;;;;;28.15;13.27;;;5.30;99.90;;;;;;5032336;28;20391;-43
2022/12/05 00:07:21;;;;;;;27.88;13.25;;;5.20;99.90;;;;;;5032353;28;20133;-40
2022/12/05 00:09:47;;;;;;;30.25;14.75;;;5.30;99.90;;;;;;5064066;28;20032;-45
2022/12/05 00:12:12;;;;;;;33.00;14.38;;;5.20;99.90;;;;;;5032339;28;20052;-46
2022/12/05 00:14:38;;;;;;;34.55;14.85;;;5.30;99.90;;;;;;5031960;28;20032;-43
2022/12/05 00:17:04;;;;;;;28.55;13.05;;;5.20;99.90;;;;;;5032292;28;20060;-48
2022/12/05 00:19:29;;;;;;;30.38;15.02;;;5.20;99.90;;;;;;5032222;28;20048;-44
2022/12/05 00:21:56;;;;;;;28.17;14.07;;;5.30;99.90;;;;;;5031813;28;20120;-40
2022/12/05 00:24:22;;;;;;;35.47;15.02;;;5.30;99.90;;;;;;5032216;28;20030;-46
2022/12/05 00:26:47;;;;;;;25.88;13.50;;;5.20;99.90;;;;;;5031664;28;20076;-42
2022/12/05 00:29:13;;;;;;;31.35;14.80;;;5.20;99.90;;;;;;5018325;28;20036;-43
2022/12/05 00:31:39;;;;;;;35.20;14.43;;;5.20;99.90;;;;;;5031668;28;20071;-40
2022/12/05 00:34:05;;;;;;;31.05;14.38;;;5.20;99.90;;;;;;5030921;28;20061;-40
2022/12/05 00:36:32;;;;;;;28.60;13.68;;;5.20;99.90;;;;;;5031888;28;20059;-49
2022/12/05 00:39:00;;;;;;;34.40;14.50;;;5.30;99.90;;;;;;5031478;28;20044;-43
2022/12/05 00:41:27;;;;;;;29.83;13.85;;;5.20;99.90;;;;;;5031714;28;20049;-53
2022/12/05 00:43:54;;;;;;;34.85;16.17;;;5.20;99.90;;;;;;5031659;28;20087;-44
2022/12/05 00:46:23;;;;;;;30.05;14.93;;;5.20;99.90;;;;;;5031596;28;20022;-42
2022/12/05 00:48:51;;;;;;;31.40;14.50;;;5.30;99.90;;;;;;5031765;28;20045;-46
2022/12/05 00:51:22;;;;;;;32.90;14.75;;;5.30;99.90;;;;;;5031459;28;20028;-48
2022/12/05 00:53:49;;;;;;;28.98;13.57;;;5.30;99.90;;;;;;5031745;28;20075;-52
2022/12/05 00:56:20;;;;;;;32.65;14.52;;;5.30;99.90;;;;;;5030875;28;20037;-42
2022/12/05 00:58:47;;;;;;;30.67;14.23;;;5.30;99.90;;;;;;5031552;28;20478;-41
2022/12/05 01:01:17;;;;;;;27.20;13.13;;;4.80;99.90;;;;;;5031214;28;20429;-44
2022/12/05 01:03:43;;;;;;;32.88;15.20;;;5.30;99.90;;;;;;5031424;28;20064;-48
2022/12/05 01:06:10;;;;;;;36.67;15.88;;;5.30;99.90;;;;;;5031186;28;20057;-41
2022/12/05 01:08:36;;;;;;;31.55;15.02;;;5.30;99.90;;;;;;5023168;28;20030;-43
2022/12/05 01:11:03;;;;;;;29.75;13.93;;;5.30;99.90;;;;;;5030919;28;20500;-39
2022/12/05 01:13:29;;;;;;;31.70;14.60;;;5.30;99.90;;;;;;5030155;28;20112;-43
2022/12/05 01:15:55;;;;;;;35.75;14.43;;;5.30;99.90;;;;;;5029616;28;20407;-46
2022/12/05 01:18:22;;;;;;;30.23;14.25;;;5.00;99.90;;;;;;5031102;28;20041;-44
2022/12/05 01:20:49;;;;;;;34.83;15.70;;;5.30;99.90;;;;;;5031083;28;20040;-54
2022/12/05 01:23:14;;;;;;;32.55;15.63;;;5.60;99.90;;;;;;5031019;28;20029;-44
2022/12/05 01:25:45;;;;;;;36.15;15.60;;;3.10;99.90;;;;;;5030622;28;20029;-55
2022/12/05 01:28:12;;;;;;;34.72;15.02;;;5.70;99.90;;;;;;5031119;28;20448;-57
2022/12/05 01:30:43;;;;;;;37.67;16.92;;;5.50;99.90;;;;;;5030909;28;20022;-47
2022/12/05 01:33:09;;;;;;;38.17;16.95;;;6.00;99.90;;;;;;5031159;28;20038;-49
2022/12/05 01:35:36;;;;;;;33.28;15.35;;;5.30;99.90;;;;;;5030881;28;20036;-44
2022/12/05 01:38:02;;;;;;;38.53;16.58;;;5.30;99.90;;;;;;5030884;28;20069;-56
2022/12/05 01:40:28;;;;;;;33.22;15.35;;;5.30;99.90;;;;;;5030975;28;20044;-40
2022/12/05 01:42:54;;;;;;;32.53;15.38;;;;;;;;;;5030896;28;20021;-45
2022/12/05 01:45:30;;;;;;;31.90;14.98;;;5.30;99.90;;;;;;5030876;28;20025;-42
2022/12/05 01:47:56;;;;;;;33.70;16.20;;;5.30;99.90;;;;;;5030779;28;20524;-51
2022/12/05 01:50:22;;;;;;;35.10;15.27;;;5.30;99.90;;;;;;5030853;28;20108;-50
2022/12/05 01:52:47;;;;;;;34.47;15.80;;;5.50;99.90;;;;;;5030606;28;20389;-56
2022/12/05 01:55:16;;;;;;;37.65;17.10;;;5.60;99.90;;;;;;5030449;28;20072;-56
2022/12/05 01:57:44;;;;;;;37.13;16.80;;;5.30;99.90;;;;;;5030522;28;20030;-50
2022/12/05 02:00:14;;;;;;;35.00;15.70;;;5.30;99.90;;;;;;5030824;28;20037;-46
2022/12/05 02:02:43;;;;;;;36.95;16.83;;;5.30;99.90;;;;;;5030101;28;20216;-50
2022/12/05 02:05:19;;;;;;;34.78;16.92;;;5.30;99.90;;;;;;5030442;28;20041;-40
2022/12/05 02:07:46;;;;;;;37.45;16.20;;;5.40;99.90;;;;;;5030478;28;20022;-43
2022/12/05 02:10:12;;;;;;;35.58;17.50;;;5.30;99.90;;;;;;5030772;28;20033;-42
2022/12/05 02:12:39;;;;;;;40.03;17.13;;;7.20;99.90;;;;;;5030643;28;20030;-46
2022/12/05 02:15:20;;;;;;;40.08;16.73;;;5.30;99.90;;;;;;5030263;28;20025;-41
2022/12/05 02:17:58;;;;;;;35.22;17.50;;;5.10;99.90;;;;;;5030365;28;20022;-40
2022/12/05 02:20:29;;;;;;;40.20;17.75;;;5.40;99.90;;;;;;5030415;28;20493;-44
2022/12/05 02:23:18;;;;;;;39.45;17.75;;;5.40;99.90;;;;;;5030418;28;20097;-44
2022/12/05 02:26:08;;;;;;;39.67;17.77;;;5.50;99.90;;;;;;5030103;28;20033;-39
2022/12/05 02:28:50;;;;;;;36.78;16.48;;;6.30;99.90;;;;;;5030274;28;20116;-39
2022/12/05 02:31:26;;;;;;;38.97;16.65;;;3.50;99.90;;;;;;5030380;28;20491;-40
2022/12/05 02:34:14;;;;;;;43.47;18.67;;;5.40;99.90;;;;;;5030096;28;20550;-41
2022/12/05 02:37:02;;;;;;;35.60;16.70;;;5.80;99.90;;;;;;5028704;28;20526;-40
2022/12/05 02:39:56;;;;;;;39.30;16.77;;;5.50;99.90;;;;;;5030204;28;20034;-54
2022/12/05 02:42:52;;;;;;;40.47;16.50;;;5.60;99.90;;;;;;5062112;28;20484;-39
2022/12/05 02:45:22;;;;;;;34.63;16.40;;;5.40;99.90;;;;;;5015913;28;20036;-41
2022/12/05 02:47:51;;;;;;;37.60;18.00;;;5.70;99.90;;;;;;5030288;28;20112;-52
2022/12/05 02:50:24;;;;;;;35.67;16.80;;;5.50;99.90;;;;;;5029990;28;20009;-42
2022/12/05 02:52:54;;;;;;;36.65;16.70;;;5.50;99.90;;;;;;5030106;28;20059;-46
2022/12/05 02:55:21;;;;;;;35.05;17.17;;;4.20;99.90;;;;;;5029783;28;20113;-49
2022/12/05 02:57:55;;;;;;;32.33;16.27;;;5.50;99.90;;;;;;5033408;28;20038;-40
2022/12/05 03:00:21;;;;;;;32.72;16.25;;;5.50;99.90;;;;;;5033506;28;20033;-40
2022/12/05 03:02:47;;;;;;;33.75;15.93;;;5.50;99.90;;;;;;5033669;28;20025;-50
2022/12/05 03:05:30;;;;;;;34.83;17.35;;;5.50;99.90;;;;;;5033456;28;20036;-48
2022/12/05 03:07:58;;;;;;;38.72;17.98;;;5.50;99.90;;;;;;5033609;28;20087;-50
2022/12/05 03:10:28;;;;;;;38.53;17.90;;;5.50;99.90;;;;;;5033450;28;20025;-45
2022/12/05 03:12:59;;;;;;;34.40;16.55;;;5.60;99.90;;;;;;5033432;28;20707;-49
2022/12/05 03:15:30;;;;;;;38.15;17.42;;;5.50;99.90;;;;;;5033329;28;20033;-40
2022/12/05 03:18:05;;;;;;;35.78;17.05;;;5.60;99.90;;;;;;5033408;28;20030;-43
2022/12/05 03:20:44;;;;;;;36.10;18.27;;;5.60;99.90;;;;;;5033455;28;20032;-45
2022/12/05 03:23:27;;;;;;;37.97;17.15;;;5.60;99.90;;;;;;5033313;28;20108;-45
2022/12/05 03:26:30;;;;;;;33.20;16.35;;;5.60;99.90;;;;;;5032697;28;20041;-48
2022/12/05 03:29:19;;;;;;;33.60;16.25;;;5.60;99.90;;;;;;5033149;28;20033;-42
2022/12/05 03:32:07;;;;;;;32.47;16.73;;;5.60;99.90;;;;;;5033172;28;20449;-44
2022/12/05 03:35:08;;;;;;;37.03;16.55;;;5.40;99.90;;;;;;5032958;28;20067;-50
2022/12/05 03:37:45;;;;;;;38.90;17.02;;;5.60;99.90;;;;;;5032928;28;20168;-51
2022/12/05 03:40:11;;;;;;;33.85;16.40;;;5.60;99.90;;;;;;5032985;28;20026;-39
2022/12/05 03:42:43;;;;;;;38.00;17.67;;;5.60;99.90;;;;;;5032908;28;20041;-45
2022/12/05 03:45:14;;;;;;;36.40;17.08;;;5.70;99.90;;;;;;5032989;28;20021;-50
2022/12/05 03:48:12;;;;;;;37.97;17.23;;;3.10;99.90;;;;;;5033210;28;20086;-41
2022/12/05 03:50:42;;;;;;;40.08;19.33;;;6.00;99.90;;;;;;5030842;28;20034;-47
2022/12/05 03:53:19;;;;;;;32.92;16.65;;;5.60;99.90;;;;;;5032606;28;20029;-46
2022/12/05 03:55:48;;;;;;;37.70;18.15;;;5.60;99.90;;;;;;5032355;28;20127;-54
2022/12/05 03:58:30;;;;;;;34.67;16.58;;;5.70;99.90;;;;;;5032360;28;20041;-48
2022/12/05 04:01:00;;;;;;;35.10;16.35;;;5.70;99.90;;;;;;5032970;28;20030;-54
2022/12/05 04:03:38;;;;;;;34.33;17.33;;;5.70;99.90;;;;;;5032547;28;20033;-57
2022/12/05 04:06:20;;;;;;;40.03;16.98;;;6.80;99.90;;;;;;5032101;28;20025;-65
2022/12/05 04:09:17;;;;;;;35.08;17.52;;;5.70;99.90;;;;;;5031194;28;20029;-40
2022/12/05 04:11:58;;;;;;;33.05;15.73;;;5.60;99.90;;;;;;5031820;28;20032;-41
2022/12/05 04:14:30;;;;;;;37.60;17.83;;;5.70;99.90;;;;;;5032140;28;20151;-45
2022/12/05 04:17:03;;;;;;;37.33;17.20;;;5.20;99.90;;;;;;5032231;28;20076;-41
2022/12/05 04:22:48;;;;;;;36.97;17.23;;;5.90;99.90;;;;;;5008727;28;20045;-40
2022/12/05 04:25:33;;;;;;;34.40;17.98;;;4.00;99.90;;;;;;5032313;28;20018;-50
2022/12/05 04:28:28;;;;;;;33.22;16.45;;;5.70;99.90;;;;;;5031702;28;20707;-40
2022/12/05 04:31:24;;;;;;;33.25;16.75;;;5.70;99.90;;;;;;5036371;28;20476;-43
2022/12/05 04:33:57;;;;;;;36.97;16.75;;;5.70;99.90;;;;;;5036351;28;20060;-41
2022/12/05 04:36:41;;;;;;;29.48;15.60;;;5.70;99.90;;;;;;5020478;28;20040;-49
2022/12/05 04:39:30;;;;;;;37.33;17.58;;;5.70;99.90;;;;;;5031579;28;20488;-43
2022/12/05 04:42:10;;;;;;;33.03;17.10;;;5.70;99.90;;;;;;5031745;28;20365;-44
2022/12/05 04:44:43;;;;;;;34.33;18.20;;;5.70;99.90;;;;;;5031578;28;20091;-41
2022/12/05 04:47:13;;;;;;;35.35;17.15;;;5.70;99.90;;;;;;5031846;28;20036;-43
2022/12/05 04:49:41;;;;;;;32.65;17.77;;;5.70;99.90;;;;;;5031589;28;20048;-41
2022/12/05 04:52:10;;;;;;;33.33;17.45;;;5.80;99.90;;;;;;5030401;28;20032;-46
2022/12/05 04:54:38;;;;;;;33.70;16.92;;;5.70;99.90;;;;;;5031394;28;20021;-42
2022/12/05 04:57:18;;;;;;;32.15;16.50;;;5.70;99.90;;;;;;5031062;28;20053;-50
2022/12/05 04:59:44;;;;;;;34.08;17.85;;;5.70;99.90;;;;;;5031268;28;20384;-39
2022/12/05 05:02:14;;;;;;;34.15;18.20;;;5.70;99.90;;;;;;5031302;28;20100;-43
2022/12/05 05:04:45;;;;;;;30.52;16.98;;;5.80;99.90;;;;;;5031370;28;20022;-41
2022/12/05 05:07:12;;;;;;;31.92;16.25;;;5.80;99.90;;;;;;5031318;28;20072;-39
2022/12/05 05:09:38;;;;;;;33.72;17.35;;;5.80;99.90;;;;;;5031354;28;20033;-48
2022/12/05 05:12:05;;;;;;;29.80;15.88;;;5.80;99.90;;;;;;5031240;28;20127;-44
2022/12/05 05:14:31;;;;;;;32.75;17.08;;;5.70;99.90;;;;;;5031222;28;20036;-42
2022/12/05 05:16:57;;;;;;;31.55;17.25;;;5.70;99.90;;;;;;5031045;28;20022;-42
2022/12/05 05:19:23;;;;;;;30.52;15.52;;;5.80;99.90;;;;;;5030470;28;20072;-43
2022/12/05 05:21:50;;;;;;;33.35;17.13;;;5.80;99.90;;;;;;5030828;28;20021;-40
2022/12/05 05:24:15;;;;;;;34.72;17.85;;;5.80;99.90;;;;;;5031227;28;20025;-50
2022/12/05 05:26:43;;;;;;;32.25;18.33;;;5.70;99.90;;;;;;5030951;28;20029;-49
2022/12/05 05:29:10;;;;;;;28.90;16.52;;;5.70;99.90;;;;;;5030696;28;20538;-54
2022/12/05 05:31:37;;;;;;;30.65;15.57;;;5.70;99.90;;;;;;5039427;28;20108;-45
2022/12/05 05:34:04;;;;;;;29.90;16.55;;;5.80;99.90;;;;;;5032587;28;20497;-43
2022/12/05 05:36:29;;;;;;;28.45;15.98;;;5.80;99.90;;;;;;5041175;28;20033;-39
2022/12/05 05:38:58;;;;;;;29.73;16.05;;;6.00;99.90;;;;;;5062679;28;20040;-45
2022/12/05 05:41:32;;;;;;;27.55;16.48;;;5.70;99.90;;;;;;5030637;28;20029;-39
2022/12/05 05:43:58;;;;;;;31.77;17.17;;;5.70;99.90;;;;;;5030532;28;20116;-42
2022/12/05 05:46:27;;;;;;;33.92;17.65;;;5.70;99.90;;;;;;5030802;28;20017;-45
2022/12/05 05:48:53;;;;;;;30.52;16.10;;;5.80;99.90;;;;;;5030899;28;20037;-42
2022/12/05 05:51:19;;;;;;;35.47;17.15;;;5.80;99.90;;;;;;5030671;28;20026;-40
2022/12/05 05:53:46;;;;;;;27.75;15.45;;;5.80;99.90;;;;;;5030815;28;20048;-40
2022/12/05 05:56:14;;;;;;;26.92;15.35;;;5.80;99.90;;;;;;5030425;28;20100;-44
2022/12/05 05:58:40;;;;;;;29.40;15.55;;;5.80;99.90;;;;;;5015525;28;20041;-44
2022/12/05 06:01:17;;;;;;;30.38;15.77;;;5.80;99.90;;;;;;5030749;28;20040;-49
2022/12/05 06:03:43;;;;;;;28.80;15.93;;;5.80;99.90;;;;;;5030647;28;20025;-40
2022/12/05 06:06:12;;;;;;;26.92;15.23;;;5.80;99.90;;;;;;5030662;28;20539;-42
2022/12/05 06:08:40;;;;;;;29.42;15.65;;;5.80;99.90;;;;;;5030434;28;20551;-39
2022/12/05 06:11:07;;;;;;;26.17;15.23;;;5.80;99.90;;;;;;5030628;28;20036;-43
2022/12/05 06:13:33;;;;;;;26.95;14.55;;;5.80;99.90;;;;;;5030395;28;20026;-40
2022/12/05 06:15:59;;;;;;;27.00;14.85;;;5.80;99.90;;;;;;5030908;28;20427;-40
2022/12/05 06:18:24;;;;;;;26.27;15.05;;;5.90;99.90;;;;;;5030235;28;20563;-44
2022/12/05 06:20:55;;;;;;;24.80;14.75;;;5.90;99.90;;;;;;5030440;28;20076;-48
2022/12/05 06:23:21;;;;;;;27.80;14.65;;;5.80;99.90;;;;;;5030585;28;20029;-41
2022/12/05 06:25:55;;;;;;;26.95;14.98;;;5.90;99.90;;;;;;5030068;28;20392;-47
2022/12/05 06:28:24;;;;;;;26.58;14.05;;;5.90;99.90;;;;;;5030301;28;20021;-46
2022/12/05 06:30:51;;;;;;;27.77;15.30;;;5.90;99.90;;;;;;5031142;28;20087;-47
2022/12/05 06:33:17;;;;;;;31.20;15.50;;;6.40;99.90;;;;;;5034340;28;20049;-46
2022/12/05 06:35:43;;;;;;;22.98;13.93;;;5.90;99.90;;;;;;5034120;28;20026;-43
2022/12/05 06:38:09;;;;;;;26.50;14.63;;;5.90;99.90;;;;;;5033948;28;20045;-48
2022/12/05 06:40:42;;;;;;;23.85;13.82;;;5.90;99.90;;;;;;5034161;28;20048;-48
2022/12/05 06:43:08;;;;;;;23.75;14.20;;;5.90;99.90;;;;;;5033732;28;20036;-46
2022/12/05 06:45:36;;;;;;;22.20;13.32;;;5.90;99.90;;;;;;5034258;28;20025;-41
2022/12/05 06:48:02;;;;;;;22.92;13.75;;;6.00;99.90;;;;;;5033768;28;20033;-44
2022/12/05 06:50:28;;;;;;;24.25;14.05;;;5.90;99.90;;;;;;5033974;28;20029;-40
2022/12/05 06:52:53;;;;;;;24.98;14.30;;;5.90;99.90;;;;;;5033668;28;20115;-51
2022/12/05 06:55:19;;;;;;;23.42;13.82;;;6.00;99.90;;;;;;5033799;28;20051;-44
2022/12/05 06:57:44;;;;;;;23.33;13.80;;;6.10;99.90;;;;;;5033473;28;20124;-51
2022/12/05 07:02:55;;;;;;;25.02;13.48;;;5.90;99.90;;;;;;5033966;28;20045;-48
2022/12/05 07:05:20;;;;;;;26.92;13.25;;;6.00;99.90;;;;;;5033343;28;20021;-46
2022/12/05 07:07:46;;;;;;;21.65;12.70;;;6.00;99.90;;;;;;5033550;28;20096;-44
2022/12/05 07:10:12;;;;;;;24.67;14.32;;;6.00;99.90;;;;;;5032195;28;20029;-41
2022/12/05 07:12:38;;;;;;;27.70;13.70;;;6.00;99.90;;;;;;5033600;28;20388;-42
2022/12/05 07:15:03;;;;;;;28.10;13.60;;;6.00;99.90;;;;;;5033504;28;20176;-50
2022/12/05 07:17:29;;;;;;;22.67;13.70;;;6.00;99.90;;;;;;5037243;28;20021;-40
2022/12/05 07:19:55;;;;;;;22.58;14.05;;;6.00;99.90;;;;;;5033198;28;20111;-43
2022/12/05 07:22:22;;;;;;;25.63;14.55;;;6.00;99.90;;;;;;5033104;28;20530;-46
2022/12/05 07:24:50;;;;;;;24.63;13.82;;;6.10;99.90;;;;;;5033028;28;20501;-42
2022/12/05 07:27:16;;;;;;;24.00;14.25;;;6.00;99.90;;;;;;5033009;28;20047;-40
2022/12/05 07:29:41;;;;;;;25.25;13.65;;;6.00;99.90;;;;;;5031915;28;20435;-39
2022/12/05 07:32:07;;;;;;;24.55;13.65;;;6.00;99.90;;;;;;5032808;28;20441;-46
2022/12/05 07:34:33;;;;;;;24.02;13.85;;;5.20;99.90;;;;;;5032927;28;20072;-41
2022/12/05 07:36:59;;;;;;;25.52;14.65;;;6.00;99.90;;;;;;5031458;28;20029;-45
2022/12/05 07:39:25;;;;;;;21.25;13.30;;;6.10;99.90;;;;;;5032696;28;20037;-41
2022/12/05 07:41:51;;;;;;;26.17;13.70;;;6.10;99.90;;;;;;5031165;28;20025;-46
2022/12/05 07:44:16;;;;;;;24.63;13.38;;;6.00;99.90;;;;;;5032705;28;20026;-39
2022/12/05 07:46:42;;;;;;;24.70;13.23;;;6.10;99.90;;;;;;5032722;28;20028;-40
2022/12/05 07:49:08;;;;;;;22.25;13.10;;;5.70;99.90;;;;;;5032665;28;20033;-41
2022/12/05 07:51:34;;;;;;;23.30;13.48;;;6.10;99.90;;;;;;5031686;28;20018;-46
2022/12/05 07:54:00;;;;;;;26.08;15.68;;;6.10;99.90;;;;;;5032920;28;20049;-43
2022/12/05 07:56:27;;;;;;;25.95;14.00;;;6.10;99.90;;;;;;5032202;28;20091;-40
2022/12/05 07:58:53;;;;;;;24.42;13.70;;;6.10;99.90;;;;;;5020073;28;20124;-47
2022/12/05 08:01:25;;;;;;;26.77;14.18;;;6.10;99.90;;;;;;5032492;28;20022;-44
2022/12/05 08:03:52;;;;;;;25.35;14.23;;;6.10;99.90;;;;;;5032736;28;20087;-39
2022/12/05 08:06:21;;;;;;;23.33;13.23;;;6.20;99.90;;;;;;5031175;28;20028;-40
2022/12/05 08:08:50;;;;;;;25.55;14.05;;;6.10;99.90;;;;;;5032266;28;20100;-45
2022/12/05 08:11:27;;;;;;;21.77;13.33;;;6.10;99.90;;;;;;5032299;28;20068;-44
2022/12/05 08:13:53;;;;;;;22.60;12.82;;;6.10;99.90;;;;;;5032199;28;20338;-39
2022/12/05 08:16:25;;;;;;;21.73;13.48;;;6.10;99.90;;;;;;5040731;28;20029;-49
2022/12/05 08:18:59;;;;;;;23.88;13.30;;;6.20;99.90;;;;;;5033625;28;20068;-41
2022/12/05 08:21:25;;;;;;;25.20;13.82;;;6.10;99.90;;;;;;5032168;28;20120;-40
2022/12/05 08:23:52;;;;;;;23.95;13.27;;;6.50;99.90;;;;;;5031814;28;20025;-42
2022/12/05 08:26:20;;;;;;;24.77;13.98;;;6.20;99.90;;;;;;5031674;28;20014;-44
2022/12/05 08:28:50;;;;;;;26.27;14.18;;;6.20;99.90;;;;;;5032276;28;20032;-43
2022/12/05 08:31:18;;;;;;;25.92;14.30;;;6.10;99.90;;;;;;5044745;28;20029;-43
2022/12/05 08:33:44;;;;;;;25.58;13.10;;;6.00;99.90;;;;;;5045370;28;20033;-40
2022/12/05 08:36:14;;;;;;;23.98;12.63;;;5.90;99.90;;;;;;5049589;28;20163;-42
2022/12/05 08:38:40;;;;;;;22.15;12.40;;;6.00;99.90;;;;;;5050043;28;20395;-41
2022/12/05 08:41:08;;;;;;;24.52;14.90;;;6.60;99.90;;;;;;5045075;28;20022;-43
2022/12/05 08:43:34;;;;;;;25.92;14.10;;;6.00;99.90;;;;;;5031490;28;20400;-42
2022/12/05 08:46:00;;;;;;;22.52;13.00;;;6.00;99.90;;;;;;5031616;28;20025;-51
2022/12/05 08:48:27;;;;;;;24.05;13.90;;;5.90;99.90;;;;;;5031530;28;20104;-45
2022/12/05 08:50:53;;;;;;;24.45;13.77;;;5.90;99.90;;;;;;5031573;28;20029;-46
2022/12/05 08:53:19;;;;;;;23.73;13.23;;;6.00;99.90;;;;;;5031015;28;20022;-48
2022/12/05 08:55:44;;;;;;;26.55;13.82;;;6.00;99.90;;;;;;5031306;28;20516;-40
2022/12/05 08:58:11;;;;;;;21.50;13.48;;;6.00;99.90;;;;;;5031089;28;20044;-45
2022/12/05 09:00:37;;;;;;;22.05;12.32;;;6.00;99.90;;;;;;5031034;28;20037;-41
2022/12/05 09:03:03;;;;;;;27.58;13.88;;;6.00;99.90;;;;;;5030120;28;20022;-39
2022/12/05 09:05:28;;;;;;;25.25;13.00;;;6.00;99.90;;;;;;5031422;28;20071;-47
2022/12/05 09:07:54;;;;;;;26.17;14.25;;;6.10;99.90;;;;;;5031523;28;20383;-44
2022/12/05 09:10:19;;;;;;;24.13;13.30;;;6.10;99.90;;;;;;5031246;28;20029;-51
2022/12/05 09:12:45;;;;;;;28.90;13.13;;;6.20;99.90;;;;;;5031383;28;20061;-53
2022/12/05 09:15:11;;;;;;;25.23;12.77;;;6.20;99.90;;;;;;5031141;28;20104;-43
2022/12/05 09:17:37;;;;;;;27.45;13.55;;;6.20;99.90;;;;;;5031211;28;20234;-40
2022/12/05 09:20:04;;;;;;;24.88;12.63;;;6.30;99.90;;;;;;5030829;28;20511;-48
2022/12/05 09:22:30;;;;;;;21.88;13.40;;;6.30;99.90;;;;;;5031025;28;20063;-42
2022/12/05 09:24:59;;;;;;;24.65;12.90;;;6.40;99.90;;;;;;5030853;28;20106;-44
2022/12/05 09:27:27;;;;;;;21.52;13.32;;;6.50;99.90;;;;;;5030329;28;20025;-44
2022/12/05 09:29:53;;;;;;;24.88;13.55;;;6.50;99.90;;;;;;5030693;28;20029;-47
2022/12/05 09:32:18;;;;;;;25.83;13.63;;;6.40;99.90;;;;;;5030542;28;20417;-44
2022/12/05 09:34:44;;;;;;;23.75;13.50;;;5.90;99.90;;;;;;5030660;28;20491;-49
2022/12/05 09:37:09;;;;;;;21.33;13.25;;;6.50;99.90;;;;;;5030298;28;20052;-43
2022/12/05 09:39:35;;;;;;;22.67;13.55;;;6.60;99.90;;;;;;5030578;28;20022;-51
2022/12/05 09:42:28;;;;;;;23.88;13.35;;;6.60;99.90;;;;;;5030494;28;20025;-40
2022/12/05 09:45:21;;;;;;;21.63;13.05;;;6.60;99.90;;;;;;5030824;28;20612;-43
2022/12/05 09:48:00;;;;;;;24.88;13.07;;;6.60;99.90;;;;;;5030591;28;20377;-40
2022/12/05 09:50:36;;;;;;;21.02;12.38;;;6.60;99.90;;;;;;5038012;28;20021;-42
2022/12/05 09:53:26;;;;;;;24.00;12.90;;;6.70;99.90;;;;;;5030686;28;20033;-48
2022/12/05 09:55:56;;;;;;;25.00;12.60;;;6.70;99.90;;;;;;5030209;28;20500;-43
2022/12/05 09:58:39;;;;;;;19.27;12.63;;;6.70;99.90;;;;;;5030734;28;20053;-46
2022/12/05 10:01:42;;;;;;;21.70;11.98;;;6.70;99.90;;;;;;5030721;28;20025;-40
2022/12/05 10:04:30;;;;;;;19.52;12.25;;;6.70;99.90;;;;;;5030545;28;20548;-44
2022/12/05 10:07:07;;;;;;;22.60;11.90;;;6.70;99.90;;;;;;5033336;28;20047;-44
2022/12/05 10:09:55;;;;;;;21.50;12.80;;;7.10;99.90;;;;;;5034839;28;20173;-47
2022/12/05 10:12:42;;;;;;;20.75;11.88;;;6.70;99.90;;;;;;5021621;28;20025;-41
2022/12/05 10:15:29;;;;;;;21.35;12.25;;;6.80;99.90;;;;;;5044833;28;20051;-42
2022/12/05 10:18:37;;;;;;;24.98;12.38;;;6.80;99.90;;;;;;5050917;28;20029;-41
2022/12/05 10:21:18;;;;;;;25.95;13.32;;;6.90;99.90;;;;;;5051008;28;20029;-44
2022/12/05 10:23:54;;;;;;;20.50;12.18;;;6.80;99.90;;;;;;5037600;28;20448;-44
2022/12/05 10:26:22;;;;;;;22.48;12.57;;;6.80;99.90;;;;;;5033723;28;20037;-40
2022/12/05 10:29:13;;;;;;;19.83;11.88;;;6.90;99.90;;;;;;5033874;28;20030;-45
2022/12/05 10:31:41;;;;;;;22.20;12.27;;;6.90;99.90;;;;;;5025690;28;20025;-42
2022/12/05 10:34:30;;;;;;;20.65;12.13;;;6.90;99.90;;;;;;5034652;28;20028;-41
2022/12/05 10:37:18;;;;;;;17.55;10.75;;;6.90;99.90;;;;;;5044291;28;20025;-46
2022/12/05 10:39:45;;;;;;;22.90;11.95;;;6.80;99.90;;;;;;5049275;28;20128;-46
2022/12/05 10:42:30;;;;;;;22.85;12.45;;;6.90;99.90;;;;;;5044396;28;20081;-50
2022/12/05 10:45:01;;;;;;;24.92;11.98;;;6.90;99.90;;;;;;5037712;28;20013;-39
2022/12/05 10:47:28;;;;;;;21.60;11.27;;;6.90;99.90;;;;;;5048135;28;20036;-42
2022/12/05 10:49:57;;;;;;;19.23;11.13;;;7.00;99.90;;;;;;5047386;28;20030;-44
2022/12/05 10:52:23;;;;;;;19.75;12.20;;;7.00;99.90;;;;;;5045719;28;20021;-45
2022/12/05 10:54:56;;;;;;;19.88;11.05;;;7.00;99.90;;;;;;5043747;28;20041;-41
2022/12/05 10:57:31;;;;;;;20.55;10.80;;;7.00;99.90;;;;;;5045555;28;20025;-43
2022/12/05 11:00:08;;;;;;;20.73;11.73;;;7.00;99.90;;;;;;5042690;28;20042;-50
2022/12/05 11:02:35;;;;;;;21.48;11.90;;;7.00;99.90;;;;;;5048911;28;20107;-50
2022/12/05 11:05:01;;;;;;;19.58;10.63;;;6.80;99.90;;;;;;5049706;28;20108;-56
2022/12/05 11:07:42;;;;;;;19.08;10.55;;;7.00;99.90;;;;;;5069680;28;20028;-44
2022/12/05 11:10:27;;;;;;;23.48;12.35;;;7.00;99.90;;;;;;5049783;28;20017;-40
2022/12/05 11:13:01;;;;;;;21.48;11.23;;;7.00;99.90;;;;;;5048309;28;20083;-42
2022/12/05 11:15:30;;;;;;;20.05;11.55;;;6.20;99.90;;;;;;5037671;28;20032;-52
2022/12/05 11:17:58;;;;;;;;;;;7.00;99.90;;;;;;5042372;28;20582;-46
2022/12/05 11:20:24;;;;;;;20.38;12.00;;;6.40;99.90;;;;;;5037139;28;20003;-44
2022/12/05 11:22:55;;;;;;;24.33;12.27;;;7.00;99.90;;;;;;5050246;28;20113;-54
2022/12/05 11:25:35;;;;;;;19.45;10.73;;;7.00;99.90;;;;;;5038700;28;20449;-48
2022/12/05 11:28:16;;;;;;;24.80;12.35;;;7.10;99.90;;;;;;5037089;28;20057;-41
2022/12/05 11:30:55;;;;;;;22.65;12.00;;;7.10;99.90;;;;;;5035708;28;20039;-41
2022/12/05 11:33:23;;;;;;;16.65;10.00;;;7.10;99.90;;;;;;5040680;28;20033;-48
2022/12/05 11:35:52;;;;;;;20.05;10.50;;;7.20;99.90;;;;;;5036065;28;20116;-49
2022/12/05 11:38:20;;;;;;;19.83;11.27;;;7.30;99.90;;;;;;5033468;28;20069;-45
2022/12/05 11:40:57;;;;;;;23.43;11.97;;;7.10;99.90;;;;;;5036278;28;20047;-50
2022/12/05 11:43:48;;;;;;;19.75;10.57;;;7.20;99.90;;;;;;5021645;28;20033;-53
2022/12/05 11:46:38;;;;;;;20.85;10.90;;;6.60;99.90;;;;;;5031831;28;20026;-47
2022/12/05 11:49:06;;;;;;;22.95;10.68;;;7.20;99.90;;;;;;5032970;28;20123;-42
2022/12/05 11:52:01;;;;;;;19.63;11.57;;;7.20;99.90;;;;;;5032136;28;20059;-46
2022/12/05 11:54:26;;;;;;;19.02;11.10;;;7.30;99.90;;;;;;5035460;28;20698;-43
2022/12/05 11:57:01;;;;;;;21.95;11.27;;;6.20;99.90;;;;;;5047376;28;20060;-46
2022/12/05 11:59:48;;;;;;;20.00;11.55;;;7.40;99.90;;;;;;5039119;28;20052;-40
2022/12/05 12:02:51;;;;;;;22.90;10.85;;;7.50;99.90;;;;;;5030643;28;20057;-39
2022/12/05 12:05:39;;;;;;;23.10;11.68;;;9.90;99.90;;;;;;5030657;28;20049;-41
2022/12/05 12:08:23;;;;;;;20.25;11.27;;;7.50;99.90;;;;;;5030482;28;20148;-44
2022/12/05 12:11:12;;;;;;;24.92;11.80;;;8.20;99.90;;;;;;5030279;28;20032;-41
2022/12/05 12:14:10;;;;;;;17.52;10.88;;;7.70;99.90;;;;;;5028079;28;20064;-41
2022/12/05 12:17:01;;;;;;;20.52;10.85;;;7.70;99.90;;;;;;5031794;28;20488;-42
2022/12/05 12:19:41;;;;;;;21.35;11.55;;;7.70;99.90;;;;;;5032591;28;20048;-46
2022/12/05 12:22:18;;;;;;;21.60;10.75;;;7.70;99.90;;;;;;5030013;28;20095;-49
2022/12/05 12:25:15;;;;;;;23.08;11.52;;;7.60;99.90;;;;;;5031583;28;20025;-44
2022/12/05 12:27:53;;;;;;;21.08;12.02;;;7.30;99.90;;;;;;5029173;28;20067;-49
2022/12/05 12:30:53;;;;;;;18.35;10.10;;;7.60;99.90;;;;;;5027865;28;20550;-49
2022/12/05 12:33:43;;;;;;;22.17;11.20;;;7.60;99.90;;;;;;5030335;28;20061;-47
2022/12/05 12:36:24;;;;;;;18.70;10.00;;;7.50;99.90;;;;;;5030770;28;20025;-50
2022/12/05 12:39:11;;;;;;;20.90;10.13;;;7.60;99.90;;;;;;5030678;28;20045;-45
2022/12/05 12:41:52;;;;;;;22.00;11.60;;;7.60;99.90;;;;;;5030837;28;20496;-46
2022/12/05 12:44:49;;;;;;;20.75;10.80;;;7.60;99.90;;;;;;5037836;28;20056;-43
2022/12/05 12:47:41;;;;;;;19.63;11.23;;;7.70;99.90;;;;;;5036536;28;20072;-39
2022/12/05 12:50:17;;;;;;;19.33;11.07;;;7.70;99.90;;;;;;5034619;28;20025;-45
2022/12/05 12:53:04;;;;;;;17.48;10.65;;;7.90;99.90;;;;;;5039018;28;20038;-45
2022/12/05 12:55:43;;;;;;;22.30;11.15;;;8.00;99.90;;;;;;5036757;28;20038;-42
2022/12/05 12:58:47;;;;;;;18.58;10.35;;;8.10;99.90;;;;;;5042132;28;20034;-41
2022/12/05 13:01:32;;;;;;;18.27;10.23;;;8.00;99.90;;;;;;5039370;28;20025;-43
2022/12/05 13:04:08;;;;;;;16.55;9.77;;;8.00;99.90;;;;;;5043068;28;20060;-40
2022/12/05 13:06:38;;;;;;;14.98;9.70;;;8.00;99.90;;;;;;5041995;28;20533;-44
2022/12/05 13:09:13;;;;;;;19.60;9.98;;;7.90;99.90;;;;;;5047454;28;20032;-51
2022/12/05 13:11:43;;;;;;;16.27;10.32;;;8.20;99.90;;;;;;5044068;28;20046;-43